createdAt,value
2019-01-03T00:00:53.998Z,1.83
2019-01-03T00:03:44.986Z,1.93
2019-01-03T00:06:42.036Z,2.00
2019-01-03T00:09:26.463Z,1.90
2019-01-03T00:12:20.896Z,2.10
2019-01-03T00:15:17.334Z,2.57
2019-01-03T00:18:03.825Z,3.03
2019-01-03T00:20:49.981Z,2.97
2019-01-03T00:23:36.693Z,2.70
2019-01-03T00:26:24.530Z,2.40
2019-01-03T00:29:12.782Z,2.67
2019-01-03T00:32:00.045Z,2.80
2019-01-03T00:34:51.036Z,2.80
2019-01-03T00:37:51.035Z,2.80
2019-01-03T00:40:37.811Z,2.97
2019-01-03T00:43:24.538Z,3.00
2019-01-03T00:46:18.220Z,2.70
2019-01-03T00:49:04.666Z,2.80
2019-01-03T00:51:48.507Z,2.90
2019-01-03T00:54:38.040Z,3.13
2019-01-03T00:57:24.882Z,2.80
2019-01-03T01:00:17.126Z,2.63
2019-01-03T01:03:09.114Z,2.93
2019-01-03T01:06:08.955Z,3.13
2019-01-03T01:09:28.409Z,2.90
2019-01-03T01:12:28.707Z,2.60
2019-01-03T01:15:15.581Z,2.67
2019-01-03T01:17:57.585Z,3.33
2019-01-03T01:20:57.118Z,3.70
2019-01-03T01:24:00.180Z,2.90
2019-01-03T01:26:50.804Z,2.53
2019-01-03T01:29:36.556Z,3.10
2019-01-03T01:32:17.786Z,3.40
2019-01-03T01:35:09.511Z,3.20
2019-01-03T01:37:56.571Z,3.27
2019-01-03T01:40:53.727Z,3.13
2019-01-03T01:43:57.001Z,3.10
2019-01-03T01:46:44.241Z,2.63
2019-01-03T01:49:38.584Z,2.90
2019-01-03T01:52:28.345Z,3.60
2019-01-03T01:55:15.269Z,3.80
2019-01-03T01:58:06.547Z,3.33
2019-01-03T02:00:51.769Z,3.37
2019-01-03T02:03:42.646Z,2.97
2019-01-03T02:06:29.225Z,3.60
2019-01-03T02:09:13.845Z,2.70
2019-01-03T02:12:01.918Z,2.87
2019-01-03T02:14:55.823Z,3.70
2019-01-03T02:17:40.920Z,2.60
2019-01-03T02:20:41.414Z,2.57
2019-01-03T02:23:37.186Z,3.20
2019-01-03T02:26:18.677Z,2.80
2019-01-03T02:29:16.998Z,2.10
2019-01-03T02:32:08.890Z,2.50
2019-01-03T02:34:56.626Z,3.10
2019-01-03T02:37:45.398Z,3.20
2019-01-03T02:40:32.590Z,2.80
2019-01-03T02:43:20.309Z,2.40
2019-01-03T02:45:58.164Z,2.50
2019-01-03T02:48:44.188Z,2.57
2019-01-03T02:51:31.741Z,2.30
2019-01-03T02:54:18.562Z,2.20
2019-01-03T02:57:02.488Z,2.10
2019-01-03T02:59:49.523Z,2.50
2019-01-03T03:02:36.222Z,2.33
2019-01-03T03:05:22.392Z,2.10
2019-01-03T03:08:18.936Z,3.20
2019-01-03T03:11:15.121Z,2.50
2019-01-03T03:14:07.544Z,2.40
2019-01-03T03:16:52.431Z,2.30
2019-01-03T03:20:08.921Z,2.30
2019-01-03T03:22:56.466Z,1.90
2019-01-03T03:25:43.778Z,2.10
2019-01-03T03:28:30.495Z,2.40
2019-01-03T03:31:17.516Z,2.10
2019-01-03T03:34:04.124Z,2.23
2019-01-03T03:36:58.322Z,2.13
2019-01-03T03:39:56.976Z,2.57
2019-01-03T03:42:49.704Z,2.47
2019-01-03T03:45:33.757Z,2.80
2019-01-03T03:48:13.731Z,2.70
2019-01-03T03:51:13.998Z,3.63
2019-01-03T03:54:07.745Z,2.40
2019-01-03T03:56:54.846Z,2.30
2019-01-03T03:59:38.282Z,2.10
2019-01-03T04:02:25.903Z,2.00
2019-01-03T04:05:12.698Z,2.83
2019-01-03T04:08:18.038Z,2.47
2019-01-03T04:11:15.641Z,2.27
2019-01-03T04:14:03.509Z,3.10
2019-01-03T04:17:05.978Z,2.90
2019-01-03T04:19:53.208Z,2.33
2019-01-03T04:22:37.644Z,2.50
2019-01-03T04:25:27.288Z,2.57
2019-01-03T04:28:26.797Z,2.77
2019-01-03T04:31:24.552Z,2.17
2019-01-03T04:34:07.685Z,2.73
2019-01-03T04:36:56.093Z,2.70
2019-01-03T04:39:42.582Z,3.33
2019-01-03T04:42:21.693Z,2.60
2019-01-03T04:45:10.641Z,2.70
2019-01-03T04:47:48.540Z,2.57
2019-01-03T04:50:34.433Z,2.30
2019-01-03T04:53:32.329Z,2.63
2019-01-03T04:56:20.206Z,2.63
2019-01-03T04:59:13.925Z,3.40
2019-01-03T05:02:08.315Z,3.40
2019-01-03T05:04:51.619Z,3.20
2019-01-03T05:07:38.624Z,3.20
2019-01-03T05:10:31.333Z,2.63
2019-01-03T05:13:18.867Z,3.27
2019-01-03T05:16:10.199Z,2.30
2019-01-03T05:18:57.897Z,3.23
2019-01-03T05:21:51.521Z,3.17
2019-01-03T05:24:52.321Z,3.00
2019-01-03T05:27:58.897Z,2.77
2019-01-03T05:30:55.988Z,3.00
2019-01-03T05:33:57.693Z,2.40
2019-01-03T05:36:46.549Z,3.83
2019-01-03T05:39:29.066Z,3.30
2019-01-03T05:42:12.617Z,3.50
2019-01-03T05:44:55.193Z,3.40
2019-01-03T05:47:38.434Z,3.50
2019-01-03T05:50:27.580Z,3.77
2019-01-03T05:53:13.374Z,4.23
2019-01-03T05:56:00.433Z,3.90
2019-01-03T05:58:46.853Z,4.33
2019-01-03T06:01:40.860Z,3.90
2019-01-03T06:04:47.350Z,3.97
2019-01-03T06:07:40.929Z,3.73
2019-01-03T06:10:27.570Z,4.20
2019-01-03T06:13:15.188Z,3.87
2019-01-03T06:16:09.386Z,4.80
2019-01-03T06:19:16.245Z,7.00
2019-01-03T06:22:01.953Z,7.77
2019-01-03T06:24:48.740Z,7.27
2019-01-03T06:27:45.966Z,8.17
2019-01-03T06:30:32.170Z,9.27
2019-01-03T06:33:28.878Z,8.20
2019-01-03T06:36:16.272Z,11.00
2019-01-03T06:39:03.804Z,12.17
2019-01-03T06:42:02.128Z,8.70
2019-01-03T06:44:48.650Z,7.80
2019-01-03T06:47:39.675Z,8.20
2019-01-03T06:50:43.008Z,8.40
2019-01-03T06:53:37.173Z,8.10
2019-01-03T06:56:24.437Z,8.60
2019-01-03T06:59:11.265Z,8.60
2019-01-03T07:02:12.149Z,9.60
2019-01-03T07:05:02.459Z,9.93
2019-01-03T07:07:49.569Z,10.90
2019-01-03T07:10:51.366Z,10.70
2019-01-03T07:13:38.846Z,10.93
2019-01-03T07:16:21.133Z,9.87
2019-01-03T07:19:11.378Z,9.90
2019-01-03T07:21:59.811Z,9.03
2019-01-03T07:24:54.577Z,8.30
2019-01-03T07:27:42.937Z,9.00
2019-01-03T07:30:29.874Z,7.90
2019-01-03T07:33:16.020Z,9.13
2019-01-03T07:36:02.797Z,9.27
2019-01-03T07:38:43.785Z,11.97
2019-01-03T07:41:30.642Z,10.00
2019-01-03T07:44:18.601Z,11.43
2019-01-03T07:47:08.538Z,9.97
2019-01-03T07:49:55.615Z,10.83
2019-01-03T07:52:56.601Z,11.20
2019-01-03T07:55:35.614Z,11.20
2019-01-03T07:58:26.777Z,11.10
2019-01-03T08:01:06.925Z,10.47
2019-01-03T08:03:54.053Z,13.10
2019-01-03T08:06:41.474Z,12.07
2019-01-03T08:09:28.291Z,10.10
2019-01-03T08:12:15.319Z,9.10
2019-01-03T08:15:16.352Z,11.67
2019-01-03T08:18:13.679Z,10.10
2019-01-03T08:20:59.072Z,9.90
2019-01-03T08:23:59.657Z,9.83
2019-01-03T08:26:47.047Z,10.27
2019-01-03T08:29:27.266Z,10.43
2019-01-03T08:32:25.477Z,11.47
2019-01-03T08:35:10.151Z,11.17
2019-01-03T08:38:11.598Z,11.30
2019-01-03T08:40:59.035Z,11.23
2019-01-03T08:43:45.877Z,11.80
2019-01-03T08:46:32.676Z,12.00
2019-01-03T08:49:25.290Z,29.83
2019-01-03T08:52:12.313Z,16.73
2019-01-03T08:54:58.860Z,12.70
2019-01-03T08:58:03.776Z,12.30
2019-01-03T09:00:51.902Z,12.30
2019-01-03T09:03:49.636Z,11.67
2019-01-03T09:06:36.421Z,13.77
2019-01-03T09:09:24.536Z,12.53
2019-01-03T09:12:11.254Z,12.23
2019-01-03T09:14:58.266Z,13.40
2019-01-03T09:17:44.434Z,14.70
2019-01-03T09:20:38.789Z,12.63
2019-01-03T09:23:32.597Z,12.63
2019-01-03T09:26:19.177Z,12.40
2019-01-03T09:29:07.821Z,11.50
2019-01-03T09:31:54.416Z,13.23
2019-01-03T09:34:39.022Z,11.10
2019-01-03T09:37:27.468Z,12.67
2019-01-03T09:40:18.379Z,12.03
2019-01-03T09:43:12.372Z,11.60
2019-01-03T09:45:44.493Z,16.60
2019-01-03T09:48:12.044Z,14.00
2019-01-03T09:50:41.403Z,16.57
2019-01-03T09:53:10.437Z,13.60
2019-01-03T09:55:44.101Z,13.00
2019-01-03T09:58:12.829Z,12.10
2019-01-03T10:00:41.874Z,12.30
2019-01-03T10:03:11.477Z,11.57
2019-01-03T10:05:40.483Z,12.90
2019-01-03T10:08:09.256Z,12.63
2019-01-03T10:10:38.811Z,12.80
2019-01-03T10:13:08.019Z,12.40
2019-01-03T10:15:36.985Z,11.93
2019-01-03T10:18:06.053Z,12.00
2019-01-03T10:20:35.635Z,12.67
2019-01-03T10:23:04.773Z,11.53
2019-01-03T10:25:53.013Z,11.70
2019-01-03T10:28:21.765Z,10.50
2019-01-03T10:30:50.905Z,11.10
2019-01-03T10:33:20.659Z,12.80
2019-01-03T10:35:49.660Z,11.83
2019-01-03T10:38:21.083Z,11.03
2019-01-03T10:40:49.846Z,10.73
2019-01-03T10:43:18.781Z,11.63
2019-01-03T10:45:47.988Z,12.13
2019-01-03T10:48:17.353Z,12.00
2019-01-03T10:50:47.212Z,12.77
2019-01-03T10:53:16.657Z,16.03
2019-01-03T10:55:48.663Z,11.67
2019-01-03T10:58:18.029Z,13.67
2019-01-03T11:00:46.773Z,11.70
2019-01-03T11:03:18.303Z,14.20
2019-01-03T11:05:47.789Z,10.10
2019-01-03T11:08:17.337Z,11.97
2019-01-03T11:10:46.573Z,12.50
2019-01-03T11:13:15.891Z,11.80
2019-01-03T11:15:44.607Z,12.47
2019-01-03T11:18:13.595Z,12.33
2019-01-03T11:20:42.566Z,12.00
2019-01-03T11:23:13.937Z,13.60
2019-01-03T11:25:43.411Z,11.10
2019-01-03T11:28:12.362Z,12.70
2019-01-03T11:30:43.874Z,11.43
2019-01-03T11:33:13.043Z,11.00
2019-01-03T11:35:42.308Z,11.60
2019-01-03T11:38:11.860Z,12.50
2019-01-03T11:40:40.613Z,12.40
2019-01-03T11:43:10.050Z,11.00
2019-01-03T11:45:39.046Z,11.70
2019-01-03T11:48:08.598Z,12.43
2019-01-03T11:50:37.391Z,13.43
2019-01-03T11:53:06.097Z,12.77
2019-01-03T11:55:34.827Z,13.07
2019-01-03T11:58:03.545Z,11.67
2019-01-03T12:00:32.278Z,12.70
2019-01-03T12:03:01.329Z,13.10
2019-01-03T12:05:31.349Z,13.17
2019-01-03T12:08:00.864Z,13.57
2019-01-03T12:10:29.673Z,12.83
2019-01-03T12:12:58.389Z,12.83
2019-01-03T12:15:27.797Z,13.97
2019-01-03T12:17:56.525Z,11.83
2019-01-03T12:20:25.880Z,12.90
2019-01-03T12:22:54.616Z,12.50
2019-01-03T12:25:23.766Z,15.73
2019-01-03T12:27:53.065Z,14.33
2019-01-03T12:30:22.025Z,14.53
2019-01-03T12:32:51.818Z,14.80
2019-01-03T12:35:21.175Z,12.30
2019-01-03T12:37:50.273Z,11.90
2019-01-03T12:40:19.317Z,14.20
2019-01-03T12:42:48.753Z,13.67
2019-01-03T12:45:17.743Z,13.80
2019-01-03T12:47:47.101Z,12.87
2019-01-03T12:50:16.071Z,13.20
2019-01-03T12:52:45.154Z,11.33
2019-01-03T12:55:14.662Z,11.43
2019-01-03T12:57:44.270Z,12.50
2019-01-03T13:00:15.521Z,10.80
2019-01-03T13:02:44.534Z,11.80
2019-01-03T13:05:13.607Z,12.00
2019-01-03T13:07:42.619Z,12.50
2019-01-03T13:10:11.653Z,12.00
2019-01-03T13:12:40.617Z,11.87
2019-01-03T13:15:09.741Z,11.63
2019-01-03T13:17:38.778Z,12.40
2019-01-03T13:20:08.570Z,13.70
2019-01-03T13:22:37.866Z,13.70
2019-01-03T13:25:06.933Z,13.07
2019-01-03T13:27:35.657Z,13.10
2019-01-03T13:30:05.697Z,12.60
2019-01-03T13:32:34.488Z,11.43
2019-01-03T13:35:03.244Z,10.87
2019-01-03T13:37:32.304Z,10.80
2019-01-03T13:40:01.377Z,9.93
2019-01-03T13:42:30.241Z,10.80
2019-01-03T13:44:59.661Z,10.97
2019-01-03T13:47:30.257Z,11.93
2019-01-03T13:49:59.257Z,9.60
2019-01-03T13:52:27.965Z,12.03
2019-01-03T13:54:56.932Z,11.53
2019-01-03T13:57:25.732Z,11.67
2019-01-03T13:59:54.922Z,12.20
2019-01-03T14:02:24.379Z,11.70
2019-01-03T14:04:53.126Z,11.33
2019-01-03T14:07:22.097Z,12.20
2019-01-03T14:09:51.058Z,10.07
2019-01-03T14:12:20.086Z,10.10
2019-01-03T14:14:48.808Z,9.80
2019-01-03T14:17:20.572Z,9.60
2019-01-03T14:19:49.316Z,10.87
2019-01-03T14:22:18.017Z,9.60
2019-01-03T14:24:47.197Z,10.53
2019-01-03T14:27:16.120Z,10.70
2019-01-03T14:29:45.573Z,13.60
2019-01-03T14:32:14.632Z,11.30
2019-01-03T14:34:43.990Z,10.57
2019-01-03T14:37:13.662Z,9.10
2019-01-03T14:39:42.681Z,9.27
2019-01-03T14:42:12.746Z,10.60
2019-01-03T14:44:42.221Z,10.17
2019-01-03T14:47:11.449Z,11.27
2019-01-03T14:49:40.273Z,10.30
2019-01-03T14:52:09.505Z,12.70
2019-01-03T14:54:38.625Z,11.87
2019-01-03T14:57:07.921Z,10.97
2019-01-03T14:59:36.659Z,10.53
2019-01-03T15:02:05.456Z,10.30
2019-01-03T15:04:34.461Z,10.50
2019-01-03T15:07:03.829Z,8.40
2019-01-03T15:09:32.757Z,9.77
2019-01-03T15:12:01.794Z,8.43
2019-01-03T15:14:31.207Z,8.30
2019-01-03T15:17:00.426Z,8.97
2019-01-03T15:19:29.790Z,9.63
2019-01-03T15:21:59.077Z,10.30
2019-01-03T15:24:27.901Z,9.30
2019-01-03T15:26:57.104Z,9.87
2019-01-03T15:29:26.833Z,10.70
2019-01-03T15:32:18.287Z,11.33
2019-01-03T15:34:47.376Z,10.47
2019-01-03T15:37:16.244Z,9.30
2019-01-03T15:39:45.535Z,10.07
2019-01-03T15:42:14.668Z,9.10
2019-01-03T15:44:43.742Z,9.73
2019-01-03T15:47:12.868Z,10.53
2019-01-03T15:49:42.190Z,9.17
2019-01-03T15:52:12.105Z,8.77
2019-01-03T15:54:41.359Z,9.20
2019-01-03T15:57:10.922Z,9.23
2019-01-03T15:59:40.202Z,8.97
2019-01-03T16:02:09.587Z,11.53
2019-01-03T16:04:58.243Z,9.57
2019-01-03T16:07:27.477Z,13.60
2019-01-03T16:09:57.185Z,8.80
2019-01-03T16:12:26.139Z,8.10
2019-01-03T16:14:55.170Z,6.83
2019-01-03T16:17:24.299Z,6.90
2019-01-03T16:19:53.163Z,7.60
2019-01-03T16:22:22.387Z,8.93
2019-01-03T16:24:51.747Z,7.83
2019-01-03T16:27:20.862Z,7.63
2019-01-03T16:29:49.777Z,8.07
2019-01-03T16:32:19.226Z,7.00
2019-01-03T16:34:48.229Z,8.10
2019-01-03T16:37:17.573Z,7.87
2019-01-03T16:39:46.872Z,8.13
2019-01-03T16:42:15.870Z,10.93
2019-01-03T16:44:45.621Z,11.33
2019-01-03T16:47:14.456Z,10.50
2019-01-03T16:49:43.635Z,10.90
2019-01-03T16:52:13.568Z,10.40
2019-01-03T16:54:43.009Z,9.80
2019-01-03T16:57:12.650Z,10.23
2019-01-03T16:59:41.523Z,10.13
2019-01-03T17:02:10.689Z,25.43
2019-01-03T17:04:40.028Z,11.60
2019-01-03T17:07:10.173Z,13.57
2019-01-03T17:09:39.032Z,13.30
2019-01-03T17:12:08.582Z,14.60
2019-01-03T17:14:38.029Z,10.90
2019-01-03T17:17:07.196Z,11.50
2019-01-03T17:19:38.968Z,11.37
2019-01-03T17:22:10.557Z,12.33
2019-01-03T17:24:40.606Z,11.40
2019-01-03T17:27:09.685Z,11.60
2019-01-03T17:29:39.017Z,11.53
2019-01-03T17:32:07.963Z,12.80
2019-01-03T17:34:37.862Z,12.80
2019-01-03T17:37:07.041Z,12.10
2019-01-03T17:39:36.273Z,15.10
2019-01-03T17:42:05.655Z,15.47
2019-01-03T17:44:34.778Z,14.77
2019-01-03T17:47:04.258Z,14.83
2019-01-03T17:49:33.753Z,15.37
2019-01-03T17:52:03.145Z,21.13
2019-01-03T17:54:32.399Z,16.63
2019-01-03T17:57:01.225Z,15.27
2019-01-03T17:59:31.103Z,15.60
2019-01-03T18:02:00.297Z,15.50
2019-01-03T18:04:30.304Z,16.50
2019-01-03T18:06:59.434Z,15.97
2019-01-03T18:09:28.950Z,15.53
2019-01-03T18:11:58.128Z,17.83
2019-01-03T18:14:27.109Z,16.90
2019-01-03T18:16:57.617Z,19.97
2019-01-03T18:19:26.658Z,18.23
2019-01-03T18:21:55.367Z,18.23
2019-01-03T18:24:24.417Z,18.07
2019-01-03T18:26:53.893Z,17.80
2019-01-03T18:29:23.250Z,17.50
2019-01-03T18:31:55.705Z,17.03
2019-01-03T18:34:24.410Z,15.70
2019-01-03T18:36:53.126Z,18.10
2019-01-03T18:39:22.438Z,16.93
2019-01-03T18:41:51.661Z,18.60
2019-01-03T18:44:20.749Z,17.67
2019-01-03T18:46:50.252Z,17.63
2019-01-03T18:49:19.230Z,19.07
2019-01-03T18:51:48.186Z,20.20
2019-01-03T18:54:17.642Z,19.10
2019-01-03T18:56:46.601Z,18.10
2019-01-03T18:59:15.655Z,22.23
2019-01-03T19:01:44.670Z,18.40
2019-01-03T19:04:13.427Z,18.30
2019-01-03T19:06:42.462Z,19.20
2019-01-03T19:09:11.645Z,22.20
2019-01-03T19:11:40.878Z,21.80
2019-01-03T19:14:09.853Z,22.30
2019-01-03T19:16:38.800Z,19.93
2019-01-03T19:19:09.330Z,21.20
2019-01-03T19:21:38.323Z,30.20
2019-01-03T19:24:10.570Z,20.77
2019-01-03T19:26:39.318Z,27.50
2019-01-03T19:29:08.549Z,24.50
2019-01-03T19:31:38.944Z,20.77
2019-01-03T19:34:07.752Z,22.80
2019-01-03T19:36:36.490Z,20.50
2019-01-03T19:39:06.450Z,23.57
2019-01-03T19:41:35.273Z,23.30
2019-01-03T19:44:05.761Z,22.70
2019-01-03T19:46:34.813Z,22.90
2019-01-03T19:49:03.874Z,23.00
2019-01-03T19:51:32.825Z,21.57
2019-01-03T19:54:01.877Z,24.87
2019-01-03T19:56:30.637Z,22.00
2019-01-03T19:58:59.621Z,22.27
2019-01-03T20:01:28.622Z,27.90
2019-01-03T20:03:57.678Z,32.37
2019-01-03T20:06:28.740Z,26.17
2019-01-03T20:08:58.136Z,26.13
2019-01-03T20:11:27.160Z,25.27
2019-01-03T20:13:55.893Z,24.47
2019-01-03T20:16:24.781Z,23.20
2019-01-03T20:18:53.921Z,27.50
2019-01-03T20:21:22.747Z,22.80
2019-01-03T20:23:51.788Z,24.50
2019-01-03T20:26:21.180Z,22.80
2019-01-03T20:28:50.288Z,18.70
2019-01-03T20:31:19.382Z,22.97
2019-01-03T20:33:48.129Z,27.20
2019-01-03T20:36:18.261Z,29.63
2019-01-03T20:38:47.775Z,24.70
2019-01-03T20:41:16.771Z,23.67
2019-01-03T20:43:46.850Z,26.07
2019-01-03T20:46:19.479Z,22.80
2019-01-03T20:48:48.485Z,21.57
2019-01-03T20:51:17.958Z,19.70
2019-01-03T20:53:47.050Z,19.50
2019-01-03T20:56:16.152Z,20.63
2019-01-03T20:59:04.390Z,21.43
2019-01-03T21:01:33.488Z,22.03
2019-01-03T21:04:02.275Z,29.57
2019-01-03T21:06:32.237Z,28.10
2019-01-03T21:09:01.704Z,20.77
2019-01-03T21:11:30.704Z,21.80
2019-01-03T21:14:00.104Z,23.87
2019-01-03T21:16:29.286Z,45.40
2019-01-03T21:18:58.112Z,28.73
2019-01-03T21:21:30.174Z,34.27
2019-01-03T21:23:59.848Z,28.70
2019-01-03T21:26:29.221Z,25.40
2019-01-03T21:28:58.477Z,24.30
2019-01-03T21:31:27.766Z,47.23
2019-01-03T21:33:57.406Z,23.67
2019-01-03T21:36:26.509Z,36.50
2019-01-03T21:38:55.570Z,22.03
2019-01-03T21:41:43.833Z,20.33
2019-01-03T21:44:12.649Z,21.73
2019-01-03T21:46:42.147Z,22.10
2019-01-03T21:49:11.722Z,20.70
2019-01-03T21:51:41.249Z,19.83
2019-01-03T21:54:10.357Z,21.10
2019-01-03T21:56:39.822Z,24.43
2019-01-03T21:59:10.291Z,19.70
2019-01-03T22:01:40.065Z,23.00
2019-01-03T22:04:09.377Z,20.53
2019-01-03T22:06:38.447Z,22.50
2019-01-03T22:09:07.579Z,20.07
2019-01-03T22:11:36.329Z,22.77
2019-01-03T22:14:05.437Z,20.57
2019-01-03T22:16:34.540Z,19.53
2019-01-03T22:19:03.675Z,19.03
2019-01-03T22:21:32.771Z,17.20
2019-01-03T22:24:01.849Z,16.27
2019-01-03T22:26:30.626Z,18.77
2019-01-03T22:29:00.216Z,19.67
2019-01-03T22:31:30.243Z,22.43
2019-01-03T22:33:59.306Z,18.47
2019-01-03T22:36:28.594Z,19.43
2019-01-03T22:38:57.522Z,17.10
2019-01-03T22:41:26.894Z,20.20
2019-01-03T22:43:55.907Z,21.33
2019-01-03T22:46:24.908Z,16.93
2019-01-03T22:48:54.177Z,17.60
2019-01-03T22:51:23.408Z,17.90
2019-01-03T22:53:52.484Z,25.00
2019-01-03T22:56:21.639Z,24.07
2019-01-03T22:58:51.030Z,30.20
2019-01-03T23:01:20.194Z,20.87
2019-01-03T23:03:49.233Z,19.57
2019-01-03T23:06:18.374Z,26.27
2019-01-03T23:08:47.490Z,19.80
2019-01-03T23:11:16.797Z,26.23
2019-01-03T23:13:45.737Z,19.17
2019-01-03T23:16:15.223Z,18.93
2019-01-03T23:18:44.318Z,27.30
2019-01-03T23:21:15.874Z,20.60
2019-01-03T23:23:44.948Z,19.77
2019-01-03T23:26:14.354Z,24.10
2019-01-03T23:28:43.479Z,20.40
2019-01-03T23:31:12.861Z,20.07
2019-01-03T23:33:42.620Z,17.87
2019-01-03T23:36:11.662Z,19.80
2019-01-03T23:38:40.702Z,18.73
2019-01-03T23:41:09.990Z,19.90
2019-01-03T23:43:39.545Z,19.10
2019-01-03T23:46:08.564Z,17.83
2019-01-03T23:48:37.845Z,19.90
2019-01-03T23:51:06.874Z,25.00
2019-01-03T23:53:35.891Z,19.00
2019-01-03T23:56:05.081Z,19.17
2019-01-03T23:58:34.269Z,19.50
